createdAt,value
2022-09-07T00:00:39.806Z,100302.94
2022-09-07T00:09:44.699Z,100301.56
2022-09-07T00:12:11.128Z,100307.00
2022-09-07T00:14:37.536Z,100305.31
2022-09-07T00:17:03.977Z,100309.47
2022-09-07T00:19:30.364Z,100315.44
2022-09-07T00:21:56.731Z,100310.56
2022-09-07T00:24:23.104Z,100317.00
2022-09-07T00:26:49.472Z,100316.66
2022-09-07T00:29:15.877Z,100325.94
2022-09-07T00:31:42.398Z,100325.94
2022-09-07T00:34:08.869Z,100321.44
2022-09-07T00:36:35.247Z,100320.13
2022-09-07T00:39:02.485Z,100327.22
2022-09-07T00:41:29.065Z,100320.97
2022-09-07T00:44:19.248Z,100332.22
2022-09-07T00:46:46.825Z,100354.56
2022-09-07T00:49:19.926Z,100377.88
2022-09-07T00:51:52.912Z,100363.97
2022-09-07T00:54:32.885Z,100364.91
2022-09-07T00:57:00.256Z,100340.47
2022-09-07T00:59:32.189Z,100321.13
2022-09-07T01:01:58.943Z,100300.00
2022-09-07T01:04:25.990Z,100285.94
2022-09-07T01:06:55.157Z,100271.53
2022-09-07T01:09:23.002Z,100262.94
2022-09-07T01:11:51.420Z,100268.84
2022-09-07T01:14:22.836Z,100248.38
2022-09-07T01:17:01.172Z,100231.44
2022-09-07T01:19:55.536Z,100187.78
2022-09-07T01:22:53.007Z,100185.06
2022-09-07T01:25:42.651Z,100218.44
2022-09-07T01:28:18.002Z,100225.72
2022-09-07T01:31:07.632Z,100222.34
2022-09-07T01:34:14.546Z,100231.69
2022-09-07T01:36:55.573Z,100247.34
2022-09-07T01:39:28.744Z,100277.63
2022-09-07T01:42:03.716Z,100294.16
2022-09-07T01:44:37.663Z,100314.00
2022-09-07T01:47:14.928Z,100345.34
2022-09-07T01:49:47.248Z,100348.59
2022-09-07T01:52:32.464Z,100345.34
2022-09-07T01:55:05.860Z,100344.06
2022-09-07T01:57:39.227Z,100333.22
2022-09-07T02:00:10.759Z,100315.94
2022-09-07T02:03:07.649Z,100330.34
2022-09-07T02:05:42.224Z,100356.16
2022-09-07T02:08:14.792Z,100370.72
2022-09-07T02:10:58.316Z,100411.28
2022-09-07T02:13:41.448Z,100442.66
2022-09-07T02:16:19.814Z,100403.31
2022-09-07T02:18:49.999Z,100373.84
2022-09-07T02:21:20.048Z,100356.44
2022-09-07T02:23:56.869Z,100361.56
2022-09-07T02:26:26.061Z,100340.53
2022-09-07T02:28:52.538Z,100332.78
2022-09-07T02:31:19.034Z,100334.47
2022-09-07T02:33:45.661Z,100332.28
2022-09-07T02:36:16.106Z,100338.81
2022-09-07T02:38:42.502Z,100310.66
2022-09-07T02:41:44.199Z,100300.00
2022-09-07T02:44:19.140Z,100271.91
2022-09-07T02:46:57.097Z,100277.34
2022-09-07T02:49:51.266Z,100270.59
2022-09-07T02:52:29.884Z,100263.75
2022-09-07T02:55:24.184Z,100281.34
2022-09-07T02:58:31.789Z,100279.56
2022-09-07T03:01:06.279Z,100294.28
2022-09-07T03:03:38.996Z,100283.34
2022-09-07T03:06:17.215Z,100280.50
2022-09-07T03:08:49.355Z,100273.72
2022-09-07T03:11:17.068Z,100263.47
2022-09-07T03:13:43.485Z,100261.53
2022-09-07T03:16:14.627Z,100254.25
2022-09-07T03:18:42.561Z,100254.63
2022-09-07T03:21:09.550Z,100259.56
2022-09-07T03:23:37.430Z,100256.06
2022-09-07T03:26:04.337Z,100240.31
2022-09-07T03:28:30.756Z,100239.81
2022-09-07T03:30:57.278Z,100246.06
2022-09-07T03:33:23.754Z,100251.81
2022-09-07T03:35:59.723Z,100263.13
2022-09-07T03:38:26.095Z,100267.53
2022-09-07T03:41:04.371Z,100270.03
2022-09-07T03:43:32.278Z,100265.47
2022-09-07T03:46:00.813Z,100262.19
2022-09-07T03:48:30.954Z,100261.19
2022-09-07T03:51:17.754Z,100261.34
2022-09-07T03:53:46.486Z,100260.50
2022-09-07T03:56:20.976Z,100243.41
2022-09-07T03:58:49.071Z,100256.41
2022-09-07T04:01:24.254Z,100263.03
2022-09-07T04:03:51.287Z,100272.38
2022-09-07T04:06:18.187Z,100272.38
2022-09-07T04:08:44.672Z,100268.81
2022-09-07T04:11:14.955Z,100260.03
2022-09-07T04:13:41.667Z,100275.09
2022-09-07T04:16:20.663Z,100263.78
2022-09-07T04:18:47.532Z,100269.22
2022-09-07T04:21:13.993Z,100271.25
2022-09-07T04:23:42.253Z,100275.81
2022-09-07T04:26:21.178Z,100270.22
2022-09-07T04:28:48.237Z,100283.84
2022-09-07T04:31:16.278Z,100282.31
2022-09-07T04:33:44.079Z,100284.63
2022-09-07T04:36:12.053Z,100291.66
2022-09-07T04:38:40.005Z,100288.75
2022-09-07T04:41:09.811Z,100292.16
2022-09-07T04:43:37.900Z,100288.00
2022-09-07T04:46:21.867Z,100280.72
2022-09-07T04:48:49.886Z,100298.34
2022-09-07T04:51:17.285Z,100290.75
2022-09-07T04:53:43.820Z,100290.28
2022-09-07T04:56:12.829Z,100283.84
2022-09-07T04:58:42.859Z,100285.16
2022-09-07T05:01:09.544Z,100293.19
2022-09-07T05:03:38.414Z,100305.31
2022-09-07T05:06:06.595Z,100304.19
2022-09-07T05:08:38.020Z,100298.66
2022-09-07T05:11:04.719Z,100303.69
2022-09-07T05:13:31.794Z,100317.25
2022-09-07T05:15:59.247Z,100310.84
2022-09-07T05:18:26.382Z,100316.59
2022-09-07T05:20:52.768Z,100321.69
2022-09-07T05:23:19.884Z,100317.59
2022-09-07T05:25:46.975Z,100322.53
2022-09-07T05:28:18.612Z,100314.25
2022-09-07T05:36:19.009Z,100310.13
2022-09-07T05:38:45.413Z,100319.28
2022-09-07T05:41:20.827Z,100320.59
2022-09-07T05:46:34.913Z,100335.78
2022-09-07T05:49:03.144Z,100332.72
2022-09-07T05:51:29.585Z,100328.44
2022-09-07T05:53:56.835Z,100325.19
2022-09-07T05:56:23.238Z,100325.50
2022-09-07T05:58:49.709Z,100331.22
2022-09-07T06:01:17.126Z,100329.66
2022-09-07T06:03:44.557Z,100322.66
2022-09-07T06:06:16.314Z,100316.88
2022-09-07T06:08:48.928Z,100320.84
2022-09-07T06:11:18.762Z,100323.63
2022-09-07T06:13:45.739Z,100319.03
2022-09-07T06:16:13.830Z,100321.28
2022-09-07T06:18:43.014Z,100321.78
2022-09-07T06:21:12.451Z,100339.34
2022-09-07T06:23:40.795Z,100331.50
2022-09-07T06:26:07.793Z,100336.75
2022-09-07T06:28:39.976Z,100328.72
2022-09-07T06:31:18.496Z,100330.69
2022-09-07T06:33:46.089Z,100336.38
2022-09-07T06:36:15.196Z,100335.06
2022-09-07T06:38:42.859Z,100331.50
2022-09-07T06:44:00.257Z,100346.00
2022-09-07T06:49:13.042Z,100338.91
2022-09-07T06:51:39.395Z,100338.84
2022-09-07T06:56:52.473Z,100347.41
2022-09-07T06:59:18.984Z,100339.56
2022-09-07T07:01:45.492Z,100340.84
2022-09-07T07:07:02.586Z,100333.94
2022-09-07T07:09:29.179Z,100333.75
2022-09-07T07:11:55.604Z,100343.47
2022-09-07T07:14:22.029Z,100329.31
2022-09-07T07:16:48.489Z,100342.69
2022-09-07T07:19:14.891Z,100346.31
2022-09-07T07:22:07.673Z,100345.16
2022-09-07T07:24:27.705Z,100349.31
2022-09-07T07:26:54.080Z,100349.69
2022-09-07T07:29:22.779Z,100358.38
2022-09-07T07:31:50.460Z,100361.69
2022-09-07T07:34:16.928Z,100357.56
2022-09-07T07:36:43.378Z,100354.31
2022-09-07T07:41:58.870Z,100359.91
2022-09-07T07:44:28.224Z,100370.78
2022-09-07T07:46:54.642Z,100374.19
2022-09-07T07:49:21.134Z,100369.44
2022-09-07T07:54:36.817Z,100366.59
2022-09-07T07:57:05.078Z,100368.69
2022-09-07T07:59:31.443Z,100369.41
2022-09-07T08:01:57.912Z,100370.31
2022-09-07T08:04:24.334Z,100366.16
2022-09-07T08:06:50.670Z,100373.72
2022-09-07T08:09:17.121Z,100379.25
2022-09-07T08:11:43.505Z,100381.41
2022-09-07T08:14:09.847Z,100382.94
2022-09-07T08:16:36.635Z,100387.34
2022-09-07T08:19:03.747Z,100378.09
2022-09-07T08:21:30.103Z,100382.94
2022-09-07T08:23:56.963Z,100386.09
2022-09-07T08:26:23.252Z,100376.44
2022-09-07T08:28:49.538Z,100389.47
2022-09-07T08:31:17.198Z,100394.69
2022-09-07T08:33:43.993Z,100391.16
2022-09-07T08:36:16.561Z,100395.56
2022-09-07T08:38:43.155Z,100399.56
2022-09-07T08:41:34.053Z,100403.31
2022-09-07T08:44:10.011Z,100407.50
2022-09-07T08:46:44.355Z,100402.84
2022-09-07T08:49:17.383Z,100402.56
2022-09-07T08:51:50.625Z,100402.97
2022-09-07T08:54:17.837Z,100405.28
2022-09-07T08:59:46.958Z,100410.59
2022-09-07T09:02:35.154Z,100418.94
2022-09-07T09:05:20.403Z,100422.06
2022-09-07T09:07:58.456Z,100422.41
2022-09-07T09:11:00.074Z,100419.78
2022-09-07T09:13:29.182Z,100420.66
2022-09-07T09:16:05.376Z,100407.78
2022-09-07T09:19:15.813Z,100407.88
2022-09-07T09:21:43.004Z,100401.84
2022-09-07T09:24:19.836Z,100406.22
2022-09-07T09:29:23.031Z,100410.44
2022-09-07T09:31:49.879Z,100413.38
2022-09-07T09:34:23.792Z,100408.91
2022-09-07T09:36:54.277Z,100408.56
2022-09-07T09:39:29.649Z,100410.41
2022-09-07T09:41:59.236Z,100410.94
2022-09-07T09:44:32.784Z,100404.03
2022-09-07T09:49:45.678Z,100396.34
2022-09-07T09:52:30.193Z,100398.94
2022-09-07T09:55:17.260Z,100396.34
2022-09-07T10:03:58.374Z,100394.81
2022-09-07T10:06:27.798Z,100379.47
2022-09-07T10:09:01.971Z,100385.88
2022-09-07T10:12:07.070Z,100383.16
2022-09-07T10:14:41.946Z,100374.22
2022-09-07T10:17:12.889Z,100363.31
2022-09-07T10:19:42.386Z,100369.75
2022-09-07T10:22:32.057Z,100374.09
2022-09-07T10:25:00.680Z,100367.16
2022-09-07T10:27:38.536Z,100361.78
2022-09-07T10:30:14.917Z,100360.31
2022-09-07T10:33:03.131Z,100354.22
2022-09-07T10:35:40.536Z,100361.25
2022-09-07T10:38:22.686Z,100353.50
2022-09-07T10:41:01.142Z,100350.00
2022-09-07T10:43:48.297Z,100349.97
2022-09-07T10:49:25.513Z,100348.31
2022-09-07T10:52:23.092Z,100357.28
2022-09-07T10:55:19.372Z,100341.59
2022-09-07T10:57:54.877Z,100339.63
2022-09-07T11:00:22.588Z,100340.22
2022-09-07T11:06:17.581Z,100332.72
2022-09-07T11:12:01.490Z,100327.50
2022-09-07T11:14:31.203Z,100331.19
2022-09-07T11:17:01.760Z,100327.13
2022-09-07T11:19:43.765Z,100323.13
2022-09-07T11:22:24.149Z,100329.63
2022-09-07T11:27:50.154Z,100320.22
2022-09-07T11:30:23.548Z,100328.16
2022-09-07T11:32:56.296Z,100318.75
2022-09-07T11:35:39.319Z,100313.28
2022-09-07T11:38:19.953Z,100320.69
2022-09-07T11:41:06.180Z,100325.38
2022-09-07T11:43:41.197Z,100326.03
2022-09-07T11:46:16.466Z,100322.19
2022-09-07T11:48:52.892Z,100323.19
2022-09-07T11:51:22.415Z,100316.25
2022-09-07T11:54:06.434Z,100319.59
2022-09-07T11:56:38.525Z,100312.56
2022-09-07T11:59:21.802Z,100312.81
2022-09-07T12:01:48.079Z,100309.91
2022-09-07T12:04:32.892Z,100299.34
2022-09-07T12:07:25.472Z,100292.34
2022-09-07T12:09:57.840Z,100289.13
2022-09-07T12:12:43.605Z,100298.47
2022-09-07T12:15:20.817Z,100285.41
2022-09-07T12:17:56.295Z,100283.41
2022-09-07T12:20:40.679Z,100278.63
2022-09-07T12:23:15.868Z,100274.88
2022-09-07T12:25:44.407Z,100274.03
2022-09-07T12:28:25.756Z,100270.66
2022-09-07T12:31:00.419Z,100273.16
2022-09-07T12:33:29.481Z,100278.94
2022-09-07T12:35:58.768Z,100279.41
2022-09-07T12:38:31.182Z,100275.38
2022-09-07T12:41:01.643Z,100273.00
2022-09-07T12:43:27.939Z,100278.03
2022-09-07T12:45:56.566Z,100267.09
2022-09-07T12:48:43.465Z,100267.25
2022-09-07T12:54:34.294Z,100267.44
2022-09-07T12:57:29.937Z,100261.59
2022-09-07T13:00:23.047Z,100259.81
2022-09-07T13:02:52.733Z,100263.84
2022-09-07T13:05:38.171Z,100256.84
2022-09-07T13:08:31.704Z,100263.44
2022-09-07T13:11:16.815Z,100262.94
2022-09-07T13:14:04.839Z,100257.44
2022-09-07T13:19:46.056Z,100266.03
2022-09-07T13:22:30.666Z,100263.03
2022-09-07T13:24:59.770Z,100260.88
2022-09-07T13:27:37.956Z,100266.47
2022-09-07T13:30:16.719Z,100258.38
2022-09-07T13:35:31.829Z,100266.94
2022-09-07T13:38:03.140Z,100265.44
2022-09-07T13:40:40.207Z,100268.19
2022-09-07T13:43:20.891Z,100273.44
2022-09-07T13:45:53.050Z,100265.84
2022-09-07T13:48:48.661Z,100269.28
2022-09-07T13:51:23.724Z,100261.94
2022-09-07T13:53:56.184Z,100257.94
2022-09-07T13:56:50.745Z,100257.28
2022-09-07T13:59:22.110Z,100255.75
2022-09-07T14:01:50.519Z,100250.28
2022-09-07T14:04:27.623Z,100254.75
2022-09-07T14:07:12.915Z,100245.84
2022-09-07T14:09:39.295Z,100249.47
2022-09-07T14:12:17.272Z,100246.09
2022-09-07T14:14:43.595Z,100253.94
2022-09-07T14:17:19.010Z,100241.84
2022-09-07T14:19:48.237Z,100239.94
2022-09-07T14:22:17.802Z,100247.56
2022-09-07T14:24:55.572Z,100255.00
2022-09-07T14:27:42.389Z,100254.59
2022-09-07T14:30:28.595Z,100248.03
2022-09-07T14:33:05.841Z,100249.53
2022-09-07T14:35:34.826Z,100246.09
2022-09-07T14:38:11.320Z,100241.13
2022-09-07T14:40:37.807Z,100245.88
2022-09-07T14:43:05.068Z,100243.88
2022-09-07T14:45:33.622Z,100235.56
2022-09-07T14:48:00.020Z,100232.94
2022-09-07T14:50:41.230Z,100230.19
2022-09-07T14:56:09.683Z,100235.88
2022-09-07T14:58:36.037Z,100228.59
2022-09-07T15:04:00.817Z,100215.75
2022-09-07T15:09:34.501Z,100209.72
2022-09-07T15:12:19.027Z,100201.59
2022-09-07T15:14:45.818Z,100201.84
2022-09-07T15:17:47.463Z,100205.81
2022-09-07T15:20:35.009Z,100198.34
2022-09-07T15:23:08.461Z,100194.97
2022-09-07T15:25:35.493Z,100196.69
2022-09-07T15:28:02.184Z,100190.09
2022-09-07T15:30:28.607Z,100194.38
2022-09-07T15:32:57.322Z,100196.06
2022-09-07T15:35:24.174Z,100191.78
2022-09-07T15:38:58.974Z,100195.84
2022-09-07T15:40:58.086Z,100197.44
2022-09-07T15:43:29.173Z,100182.16
2022-09-07T15:45:55.621Z,100185.38
2022-09-07T15:48:26.977Z,100172.25
2022-09-07T15:52:04.826Z,100168.31
2022-09-07T15:54:12.949Z,100180.25
2022-09-07T15:56:39.438Z,100171.19
2022-09-07T15:59:05.849Z,100172.53
2022-09-07T16:04:18.732Z,100184.41
2022-09-07T16:06:48.316Z,100181.41
2022-09-07T16:09:15.387Z,100177.50
2022-09-07T16:11:41.681Z,100166.13
2022-09-07T16:14:11.523Z,100174.03
2022-09-07T16:19:24.562Z,100171.03
2022-09-07T16:21:50.851Z,100178.00
2022-09-07T16:24:17.412Z,100178.66
2022-09-07T16:26:43.747Z,100171.16
2022-09-07T16:29:10.226Z,100175.84
2022-09-07T16:31:37.135Z,100171.75
2022-09-07T16:34:04.280Z,100174.63
2022-09-07T16:36:30.819Z,100161.72
2022-09-07T16:38:59.668Z,100163.06
2022-09-07T16:41:30.985Z,100158.28
2022-09-07T16:43:58.421Z,100161.25
2022-09-07T16:46:27.350Z,100158.19
2022-09-07T16:48:54.499Z,100147.56
2022-09-07T16:51:22.617Z,100162.50
2022-09-07T16:53:51.316Z,100172.16
2022-09-07T16:56:19.991Z,100172.84
2022-09-07T16:58:48.855Z,100171.44
2022-09-07T17:01:18.445Z,100176.09
2022-09-07T17:03:45.285Z,100170.59
2022-09-07T17:06:13.591Z,100166.13
2022-09-07T17:08:40.836Z,100166.56
2022-09-07T17:11:10.164Z,100153.59
2022-09-07T17:13:38.072Z,100149.41
2022-09-07T17:16:07.601Z,100145.69
2022-09-07T17:21:21.406Z,100148.53
2022-09-07T17:23:54.407Z,100156.66
2022-09-07T17:26:22.431Z,100150.34
2022-09-07T17:28:51.136Z,100158.56
2022-09-07T17:34:11.303Z,100165.28
2022-09-07T17:36:37.593Z,100168.13
2022-09-07T17:39:19.891Z,100171.75
2022-09-07T17:41:52.623Z,100175.81
2022-09-07T17:44:19.288Z,100177.44
2022-09-07T17:46:45.653Z,100172.41
2022-09-07T17:49:13.842Z,100169.13
2022-09-07T17:51:40.199Z,100158.19
2022-09-07T17:54:11.392Z,100160.91
2022-09-07T17:56:39.469Z,100141.97
2022-09-07T18:01:53.853Z,100146.56
2022-09-07T18:04:20.458Z,100150.22
2022-09-07T18:06:46.903Z,100146.13
2022-09-07T18:09:13.950Z,100151.25
2022-09-07T18:11:49.891Z,100141.19
2022-09-07T18:14:17.073Z,100158.09
2022-09-07T18:16:45.117Z,100146.91
2022-09-07T18:19:12.443Z,100147.56
2022-09-07T18:21:40.917Z,100152.16
2022-09-07T18:24:19.461Z,100144.16
2022-09-07T18:26:51.209Z,100147.13
2022-09-07T18:29:29.253Z,100148.88
2022-09-07T18:31:57.652Z,100144.66
2022-09-07T18:34:24.172Z,100145.56
2022-09-07T18:36:50.913Z,100151.56
2022-09-07T18:39:17.310Z,100144.03
2022-09-07T18:41:43.672Z,100145.94
2022-09-07T18:46:56.351Z,100154.06
2022-09-07T18:49:22.669Z,100164.81
2022-09-07T18:54:35.384Z,100160.88
2022-09-07T18:57:01.732Z,100163.66
2022-09-07T18:59:29.543Z,100160.75
2022-09-07T19:02:01.319Z,100159.50
2022-09-07T19:05:49.529Z,100166.69
2022-09-07T19:07:15.886Z,100164.22
2022-09-07T19:12:09.913Z,100155.47
2022-09-07T19:14:36.252Z,100154.00
2022-09-07T19:17:02.619Z,100158.44
2022-09-07T19:19:28.935Z,100150.28
2022-09-07T19:21:57.443Z,100151.00
2022-09-07T19:24:23.865Z,100148.31
2022-09-07T19:26:50.164Z,100155.28
2022-09-07T19:29:18.123Z,100147.38
2022-09-07T19:31:48.666Z,100136.72
2022-09-07T19:34:15.009Z,100130.63
2022-09-07T19:36:41.316Z,100132.97
2022-09-07T19:39:07.624Z,100131.75
2022-09-07T19:41:40.765Z,100136.22
2022-09-07T19:44:08.219Z,100128.84
2022-09-07T19:46:34.798Z,100118.59
2022-09-07T19:49:01.166Z,100119.88
2022-09-07T19:51:27.662Z,100112.78
2022-09-07T19:53:54.027Z,100113.84
2022-09-07T19:56:21.838Z,100108.59
2022-09-07T19:58:49.598Z,100104.84
2022-09-07T20:01:21.745Z,100099.78
2022-09-07T20:03:56.432Z,100081.75
2022-09-07T20:06:22.821Z,100071.31
2022-09-07T20:08:49.174Z,100066.03
2022-09-07T20:11:16.743Z,100067.53
2022-09-07T20:13:44.072Z,100067.13
2022-09-07T20:16:15.403Z,100080.22
2022-09-07T20:18:42.180Z,100082.34
2022-09-07T20:21:12.382Z,100081.25
2022-09-07T20:23:39.153Z,100073.09
2022-09-07T20:26:08.160Z,100076.41
2022-09-07T20:28:35.523Z,100069.09
2022-09-07T20:31:08.241Z,100070.97
2022-09-07T20:33:35.179Z,100062.00
2022-09-07T20:36:06.016Z,100076.03
2022-09-07T20:38:32.634Z,100065.13
2022-09-07T20:41:00.877Z,100067.66
2022-09-07T20:43:27.388Z,100060.56
2022-09-07T20:45:58.521Z,100055.50
2022-09-07T20:48:25.377Z,100059.28
2022-09-07T20:50:59.512Z,100058.88
2022-09-07T20:53:26.564Z,100067.50
2022-09-07T20:56:00.566Z,100066.66
2022-09-07T20:58:26.900Z,100070.00
2022-09-07T21:00:53.399Z,100057.84
2022-09-07T21:03:19.997Z,100063.91
2022-09-07T21:05:46.483Z,100058.69
2022-09-07T21:08:13.076Z,100063.50
2022-09-07T21:10:44.605Z,100068.53
2022-09-07T21:13:11.623Z,100065.19
2022-09-07T21:15:41.938Z,100067.25
2022-09-07T21:18:14.080Z,100063.69
2022-09-07T21:20:40.707Z,100074.13
2022-09-07T21:23:07.096Z,100065.13
2022-09-07T21:25:33.460Z,100063.00
2022-09-07T21:27:59.816Z,100064.25
2022-09-07T21:30:26.116Z,100067.19
2022-09-07T21:32:52.677Z,100071.34
2022-09-07T21:35:19.340Z,100070.50
2022-09-07T21:37:45.960Z,100070.72
2022-09-07T21:40:12.345Z,100073.41
2022-09-07T21:42:39.059Z,100063.19
2022-09-07T21:45:07.281Z,100045.16
2022-09-07T21:47:33.847Z,100051.25
2022-09-07T21:50:00.256Z,100052.91
2022-09-07T21:52:26.566Z,100056.66
2022-09-07T21:54:52.966Z,100054.38
2022-09-07T21:57:19.284Z,100065.03
2022-09-07T21:59:45.582Z,100059.31
2022-09-07T22:02:12.137Z,100061.81
2022-09-07T22:04:38.500Z,100057.38
2022-09-07T22:07:04.943Z,100060.69
2022-09-07T22:09:31.228Z,100058.31
2022-09-07T22:11:57.548Z,100053.13
2022-09-07T22:14:23.868Z,100047.94
2022-09-07T22:16:50.154Z,100050.19
2022-09-07T22:19:16.591Z,100045.59
2022-09-07T22:21:42.932Z,100043.50
2022-09-07T22:24:11.513Z,100042.66
2022-09-07T22:26:38.479Z,100038.91
2022-09-07T22:29:06.586Z,100033.84
2022-09-07T22:31:35.134Z,100030.69
2022-09-07T22:34:03.942Z,100029.06
2022-09-07T22:36:36.257Z,100024.25
2022-09-07T22:39:05.780Z,100020.91
2022-09-07T22:41:34.280Z,100012.09
2022-09-07T22:44:00.903Z,100015.03
2022-09-07T22:46:30.463Z,99999.09
2022-09-07T22:48:58.321Z,99996.59
2022-09-07T22:51:26.484Z,99999.50
2022-09-07T22:53:54.094Z,99997.38
2022-09-07T22:56:22.982Z,99988.19
2022-09-07T22:58:51.781Z,99994.03
2022-09-07T23:01:18.964Z,99982.53
2022-09-07T23:03:45.609Z,99980.41
2022-09-07T23:06:25.707Z,99975.44
2022-09-07T23:08:53.306Z,99971.38
2022-09-07T23:11:20.720Z,99971.03
2022-09-07T23:13:51.132Z,99962.03
2022-09-07T23:16:17.506Z,99951.16
2022-09-07T23:18:43.837Z,99946.38
2022-09-07T23:21:10.905Z,99940.53
2022-09-07T23:23:38.075Z,99949.72
2022-09-07T23:26:05.696Z,99957.91
2022-09-07T23:28:32.772Z,99952.69
2022-09-07T23:30:59.441Z,99946.22
2022-09-07T23:33:27.141Z,99939.72
2022-09-07T23:36:02.001Z,99928.22
2022-09-07T23:38:28.494Z,99928.06
2022-09-07T23:40:55.719Z,99930.72
2022-09-07T23:43:22.774Z,99932.78
2022-09-07T23:45:49.657Z,99928.84
2022-09-07T23:48:16.248Z,99933.88
2022-09-07T23:50:44.646Z,99943.06
2022-09-07T23:53:11.344Z,99948.50
2022-09-07T23:55:37.857Z,99961.47
2022-09-07T23:58:04.517Z,99963.09
